Ivinhema, Brazil
Current Conditions -  °F | °C
As of 10:00 PM on Friday 24 Oct 2014 (Local Time) from SBCG Reporting Station
Thunderstorm Thunderstorm  
Wind Chill: 70°   Ceiling: Unl
Heat Index: 70°   Visibility: 6mi
Dew Point: 66°   Wind: 7mph
Humidity: 88%   Direction: 130°SE
Pressure: NA   Gusts: NA
Location:  22.3°S, 53.82°W
Report Text: SBCG 250100Z 13006KT 9999 VCTS FEW030 FEW040CB SCT100 21/19 Q1015
Loading
Personal Weather Stations






























Interactive Weather Map
Tropical Storm Tracking
New forecast layout! Learn more

10-Day Weather Forecast

Advertisements
Track Severe Weather on mobile